map of VOHY home
VOHY - Airport
Location
City:  Hyderabad, India
Name:Begumpet Airport
ICAO:VOHY

Details
Type:Airport (Aerodrome, Airfield)
Use:Public/Civil, Military
Latitude:1727'11"N (17.453117)
Longitude:7828'03"E (78.467586)
Datum:WGS 1984
Elevation:1742 ft (531 m)
Variation:0.65W (WMM2015v2 magnetic declination)
0.02 annual change
Runways:1
Longest:10600 × 148 ft (3231 × 45 m), paved

Time
Time Zone:UTC+5:30
Local Time:

Weather
METAR:VOHY 041400Z 11005KT 6000 NSC 25/17 Q1020 TEMPO 5000 HZ

Related Locations
Nearby:
Farthest:IPC: 11599 mi / 18667 km
Easter Island (Isla de Pascua, Rapa Nui) [Mataveri Intl], VS, CL

Find:

   beyond  
but within

Other Information
Maps:
NOTAMs:
Links:
Sources:

  
  • flag of India
  

Sectional Chart

Flight Planning
at skyvector.com

Satellite Image

Google Maps Satellite view

 

Copyright © 2004-2019 Karl L. Swartz. All rights reserved.
The Great Circle Mapper name and logo are trademarks of the Great Circle Mapper.
All other trademarks mentioned herein belong to their respective owners.
Please see credits for attibutions and further copyright information.

  Follow gcmap on Facebook Follow gcmap on Twitter GCmap on LinkedIn

hCard Microformat

Geo Microformat